Colorado Springs (COS/KCOS)

Map

Information

Location
Colorado Springs, CO
Local Time
02:15 / 2:15 am
GMT Time
08:15 / 8:15 am
Gates
22
No FAA reported delays
METAR KCOS 270754Z 35017G30KT 10SM FEW018 FEW040 10/06 A3003 RMK AO2 PK WND 35030/0748 SLP114 T01000056
TAF KCOS 270642Z 2707/2806 35024G34KT P6SM SCT020 FM270900 35015KT P6SM BKN020 FM271500 03013KT P6SM OVC020 FM271800 06015G25KT P6SM VCTS SCT040 BKN060CB FM280000 01014KT P6SM VCSH SCT040 BKN060 FM280300 36008KT P6SM SCT040 SCT060